Time;durP1;ratioP1;P1;durP2;ratioP2;P2;SDS_P1;SDS_P2;PMS_P1;PMS_P2;Temp;Humidity;BMP_temperature;BMP_pressure;BME280_temperature;BME280_humidity;BME280_pressure;Samples;Min_cycle;Max_cycle;Signal;HPM_P1;HPM_P2
2022/02/16 00:00:45;;;;;;;;;;;;;;;21.89;43.85;100175.25;4869238;29;4062;-58
2022/02/16 00:03:11;;;;;;;;;;;;;;;21.89;43.86;100177.41;4868157;29;4302;-58
2022/02/16 00:05:38;;;;;;;;;;;;;;;21.89;43.77;100175.25;4868072;29;4206;-58
2022/02/16 00:08:04;;;;;;;;;;;;;;;21.90;44.01;100164.47;4869177;29;4329;-58
2022/02/16 00:10:30;;;;;;;;;;;;;;;21.89;43.95;100157.22;4870971;29;4162;-60
2022/02/16 00:12:57;;;;;;;;;;;;;;;21.89;43.79;100160.13;4868723;29;4730;-58
2022/02/16 00:15:25;;;;;;;;;;;;;;;21.87;43.78;100160.06;4867311;29;4258;-59
2022/02/16 00:17:54;;;;;;;;;;;;;;;21.87;43.94;100151.41;4872310;29;4323;-58
2022/02/16 00:20:21;;;;;;;;;;;;;;;21.85;43.96;100151.34;4868867;29;5272;-58
2022/02/16 00:22:48;;;;;;;;;;;;;;;21.85;43.92;100157.09;4865912;29;4274;-58
2022/02/16 00:25:14;;;;;;;;;;;;;;;21.85;43.93;100137.69;4870836;29;4563;-58
2022/02/16 00:27:41;;;;;;;;;;;;;;;21.83;43.77;100146.28;4870590;29;4141;-58
2022/02/16 00:30:10;;;;;;;;;;;;;;;21.84;43.84;100144.13;4870309;29;4293;-58
2022/02/16 00:32:36;;;;;;;;;;;;;;;21.81;44.06;100140.44;4868674;29;4139;-58
2022/02/16 00:35:03;;;;;;;;;;;;;;;21.82;43.81;100141.19;4870791;29;5474;-58
2022/02/16 00:37:29;;;;;;;;;;;;;;;21.82;43.84;100138.28;4880244;29;5321;-58
2022/02/16 00:39:56;;;;;;;;;;;;;;;21.84;44.12;100132.59;4870194;29;4050;-58
2022/02/16 00:42:23;;;;;;;;;;;;;;;21.84;44.06;100133.31;4885350;29;5903;-58
2022/02/16 00:44:50;;;;;;;;;;;;;;;21.85;43.83;100134.06;4866567;29;4181;-58
2022/02/16 00:47:16;;;;;;;;;;;;;;;21.85;43.99;100131.16;4871243;29;4319;-58
2022/02/16 00:49:43;;;;;;;;;;;;;;;21.87;44.10;100142.75;4868604;29;4214;-58
2022/02/16 00:52:09;;;;;;;;;;;;;;;21.86;43.79;100132.66;4868491;29;4462;-58
2022/02/16 00:54:37;;;;;;;;;;;;;;;21.85;44.06;100128.28;4883444;29;5415;-58
2022/02/16 00:57:04;;;;;;;;;;;;;;;21.84;43.92;100118.19;4870107;29;3970;-58
2022/02/16 00:59:30;;;;;;;;;;;;;;;21.84;44.14;100113.16;4869100;29;4188;-58
2022/02/16 01:02:02;;;;;;;;;;;;;;;21.84;44.17;100109.53;4878703;29;4174;-58
2022/02/16 01:04:28;;;;;;;;;;;;;;;21.84;44.03;100109.53;4869573;29;4247;-58
2022/02/16 01:06:55;;;;;;;;;;;;;;;21.83;43.84;100099.41;4879158;29;4225;-58
2022/02/16 01:09:22;;;;;;;;;;;;;;;21.82;43.96;100109.47;4885614;29;5244;-59
2022/02/16 01:11:51;;;;;;;;;;;;;;;21.82;44.09;100100.84;4870582;29;4583;-58
2022/02/16 01:14:17;;;;;;;;;;;;;;;21.77;43.97;100090.59;4882353;29;4241;-59
2022/02/16 01:17:04;;;;;;;;;;;;;;;21.81;44.06;100105.88;4885454;29;5509;-59
2022/02/16 01:19:58;;;;;;;;;;;;;;;21.82;44.17;100095.78;4873834;29;5307;-58
2022/02/16 01:22:29;;;;;;;;;;;;;;;21.82;44.11;100095.78;4887050;29;4176;-59
2022/02/16 01:24:55;;;;;;;;;;;;;;;21.82;43.95;100084.25;4885086;29;4285;-58
2022/02/16 01:27:24;;;;;;;;;;;;;;;21.81;43.96;100082.81;4884427;29;4237;-59
2022/02/16 01:29:53;;;;;;;;;;;;;;;21.80;44.22;100069.78;4886821;29;4279;-59
2022/02/16 01:32:28;;;;;;;;;;;;;;;21.82;44.24;100083.53;4888089;29;4390;-59
2022/02/16 01:34:54;;;;;;;;;;;;;;;21.81;44.22;100070.56;4872911;29;4406;-59
2022/02/16 01:37:21;;;;;;;;;;;;;;;21.79;44.11;100062.56;4876948;29;4396;-59
2022/02/16 01:39:47;;;;;;;;;;;;;;;21.81;44.12;100065.53;4871246;29;4217;-58
2022/02/16 01:42:14;;;;;;;;;;;;;;;21.79;44.11;100059.69;4884888;29;5289;-59
2022/02/16 01:44:45;;;;;;;;;;;;;;;21.79;43.98;100059.69;4886341;29;4739;-59
2022/02/16 01:47:11;;;;;;;;;;;;;;;21.80;44.09;100057.53;4881492;29;4418;-59
2022/02/16 01:49:38;;;;;;;;;;;;;;;21.80;44.14;100051.78;4869465;29;4308;-59
2022/02/16 01:52:05;;;;;;;;;;;;;;;21.80;44.13;100048.91;4886698;29;4285;-57
2022/02/16 01:54:35;;;;;;;;;;;;;;;21.79;44.09;100044.56;4886743;29;4423;-58
2022/02/16 01:57:01;;;;;;;;;;;;;;;21.78;44.13;100038.03;4874421;29;4110;-58
2022/02/16 01:59:34;;;;;;;;;;;;;;;21.79;44.09;100033.03;4875105;29;4177;-59
2022/02/16 02:02:29;;;;;;;;;;;;;;;21.78;43.84;100028.66;4868429;29;5305;-58
2022/02/16 02:05:11;;;;;;;;;;;;;;;21.79;43.85;100027.28;4879797;29;4376;-58
2022/02/16 02:07:40;;;;;;;;;;;;;;;21.78;44.15;100020.03;4887223;29;4147;-58
2022/02/16 02:10:06;;;;;;;;;;;;;;;21.75;43.99;100017.09;4886716;29;4250;-59
2022/02/16 02:12:53;;;;;;;;;;;;;;;21.77;44.13;100009.91;4887445;29;4144;-58
2022/02/16 02:15:25;;;;;;;;;;;;;;;21.74;43.94;100004.09;4864318;29;4130;-59
2022/02/16 02:18:01;;;;;;;;;;;;;;;21.75;43.99;99999.78;4882496;29;4392;-58
2022/02/16 02:20:29;;;;;;;;;;;;;;;21.77;44.09;100001.28;4881611;29;4261;-59
2022/02/16 02:22:56;;;;;;;;;;;;;;;21.76;44.11;99997.63;4870568;29;5283;-59
2022/02/16 02:25:22;;;;;;;;;;;;;;;21.77;44.00;99990.47;4884977;29;5219;-58
2022/02/16 02:27:48;;;;;;;;;;;;;;;21.75;43.95;99982.50;4881122;29;4275;-58
2022/02/16 02:30:15;;;;;;;;;;;;;;;21.75;44.08;99982.50;4880385;29;4989;-59
2022/02/16 02:32:42;;;;;;;;;;;;;;;21.75;44.10;99976.75;4884175;29;4258;-58
2022/02/16 02:35:09;;;;;;;;;;;;;;;21.74;44.01;99975.28;4883101;29;5398;-58
2022/02/16 02:37:36;;;;;;;;;;;;;;;21.75;43.99;99970.25;4872240;29;5400;-58
2022/02/16 02:40:03;;;;;;;;;;;;;;;21.73;44.04;99956.50;4881735;29;5693;-58
2022/02/16 02:42:30;;;;;;;;;;;;;;;21.74;44.03;99955.13;4885762;29;4415;-58
2022/02/16 02:44:56;;;;;;;;;;;;;;;21.72;44.09;99955.06;4863923;29;4301;-58
2022/02/16 02:47:23;;;;;;;;;;;;;;;21.72;44.15;99946.41;4882086;29;4331;-58
2022/02/16 02:49:51;;;;;;;;;;;;;;;21.74;44.11;99946.47;4884034;29;4352;-58
2022/02/16 02:52:18;;;;;;;;;;;;;;;21.74;43.90;99932.06;4872028;29;4370;-58
2022/02/16 02:54:44;;;;;;;;;;;;;;;21.73;44.08;99919.06;4885823;29;5328;-58
2022/02/16 02:57:11;;;;;;;;;;;;;;;21.74;43.85;99928.47;4886765;29;4213;-59
2022/02/16 02:59:40;;;;;;;;;;;;;;;21.73;44.11;99918.34;4869821;29;4268;-58
2022/02/16 03:02:07;;;;;;;;;;;;;;;21.73;43.94;99919.06;4883457;29;5485;-58
2022/02/16 03:04:34;;;;;;;;;;;;;;;21.73;44.02;99921.94;4873900;29;4243;-58
2022/02/16 03:07:00;;;;;;;;;;;;;;;21.73;43.76;99910.41;4886274;29;4328;-58
2022/02/16 03:09:27;;;;;;;;;;;;;;;21.73;44.01;99909.69;4871629;29;4252;-59
2022/02/16 03:11:53;;;;;;;;;;;;;;;21.71;44.05;99907.47;4870289;29;4399;-58
2022/02/16 03:14:20;;;;;;;;;;;;;;;21.71;44.01;99904.59;4879206;29;5735;-58
2022/02/16 03:16:47;;;;;;;;;;;;;;;21.71;43.89;99887.31;4884324;29;4319;-58
2022/02/16 03:19:13;;;;;;;;;;;;;;;21.67;43.86;99881.47;4868269;29;4081;-59
2022/02/16 03:21:39;;;;;;;;;;;;;;;21.71;44.06;99895.94;4881631;29;5417;-59
2022/02/16 03:24:06;;;;;;;;;;;;;;;21.72;43.83;99882.31;4886010;29;5333;-58
2022/02/16 03:26:33;;;;;;;;;;;;;;;21.71;44.00;99887.31;4884131;29;4355;-58
2022/02/16 03:29:00;;;;;;;;;;;;;;;21.71;43.90;99875.78;4867769;29;5315;-58
2022/02/16 03:31:31;;;;;;;;;;;;;;;21.71;43.97;99872.91;4882896;29;4228;-58
2022/02/16 03:34:00;;;;;;;;;;;;;;;21.70;43.89;99868.56;4871114;29;4259;-58
2022/02/16 03:36:27;;;;;;;;;;;;;;;21.70;43.87;99857.03;4866023;29;4360;-58
2022/02/16 03:38:55;;;;;;;;;;;;;;;21.70;43.84;99864.97;4883012;29;4061;-58
2022/02/16 03:41:27;;;;;;;;;;;;;;;21.70;43.93;99857.03;4882154;29;5714;-58
2022/02/16 03:43:53;;;;;;;;;;;;;;;21.71;43.88;99854.88;4885850;29;4199;-59
2022/02/16 03:46:21;;;;;;;;;;;;;;;21.70;43.88;99859.94;4883741;29;4273;-59
2022/02/16 03:48:48;;;;;;;;;;;;;;;21.71;43.85;99846.97;4880637;29;4196;-58
2022/02/16 03:51:16;;;;;;;;;;;;;;;21.71;43.93;99854.88;4863625;29;4294;-59
2022/02/16 03:53:42;;;;;;;;;;;;;;;21.72;44.05;99862.13;4883324;29;5336;-58
2022/02/16 03:56:09;;;;;;;;;;;;;;;21.72;44.00;99859.25;4875074;29;4413;-58
2022/02/16 03:58:37;;;;;;;;;;;;;;;21.71;43.86;99855.63;4865588;29;6536;-58
2022/02/16 04:01:04;;;;;;;;;;;;;;;21.72;44.07;99851.34;4883042;29;4370;-59
2022/02/16 04:03:30;;;;;;;;;;;;;;;21.71;44.14;99846.25;4882402;29;4215;-58
2022/02/16 04:05:57;;;;;;;;;;;;;;;21.71;43.99;99846.25;4876005;29;4281;-58
2022/02/16 04:08:23;;;;;;;;;;;;;;;21.71;44.09;99838.31;4868165;29;5502;-59
2022/02/16 04:10:50;;;;;;;;;;;;;;;21.71;43.82;99841.22;4868877;29;4242;-58
2022/02/16 04:13:19;;;;;;;;;;;;;;;21.72;44.10;99839.09;4873432;29;5330;-58
2022/02/16 04:15:46;;;;;;;;;;;;;;;21.72;43.97;99841.97;4883961;29;4401;-58
2022/02/16 04:18:13;;;;;;;;;;;;;;;21.71;44.05;99828.97;4881732;29;5304;-58
2022/02/16 04:20:40;;;;;;;;;;;;;;;21.71;43.82;99844.09;4886199;29;4260;-58
2022/02/16 04:23:12;;;;;;;;;;;;;;;21.69;43.83;99829.66;4885129;29;5294;-58
2022/02/16 04:25:42;;;;;;;;;;;;;;;21.71;43.98;99840.47;4863523;29;4220;-58
2022/02/16 04:28:08;;;;;;;;;;;;;;;21.70;43.75;99839.75;4869590;29;4471;-58
2022/02/16 04:30:35;;;;;;;;;;;;;;;21.70;43.83;99833.28;4870150;29;4204;-59
2022/02/16 04:33:03;;;;;;;;;;;;;;;21.71;43.84;99831.84;4882799;29;4357;-59
2022/02/16 04:35:29;;;;;;;;;;;;;;;21.71;43.98;99837.59;4882157;29;4318;-58
2022/02/16 04:37:56;;;;;;;;;;;;;;;21.71;43.90;99831.84;4880213;29;5399;-58
2022/02/16 04:40:22;;;;;;;;;;;;;;;21.71;43.84;99832.56;4867935;29;5284;-58
2022/02/16 04:42:49;;;;;;;;;;;;;;;21.71;43.82;99828.97;4883100;29;4254;-58
2022/02/16 04:45:17;;;;;;;;;;;;;;;21.70;43.86;99833.28;4883750;29;4261;-58
2022/02/16 04:47:45;;;;;;;;;;;;;;;21.70;43.92;99822.47;4868738;29;4212;-59
2022/02/16 04:50:12;;;;;;;;;;;;;;;21.71;44.03;99814.56;4881285;29;4275;-58
2022/02/16 04:52:38;;;;;;;;;;;;;;;21.69;44.06;99815.25;4872657;29;4280;-59
2022/02/16 04:55:25;;;;;;;;;;;;;;;21.69;44.12;99806.63;4888512;29;4215;-58
2022/02/16 04:57:54;;;;;;;;;;;;;;;21.69;43.96;99808.75;4887163;29;4264;-59
2022/02/16 05:00:21;;;;;;;;;;;;;;;21.69;44.06;99800.84;4883641;29;4254;-58
2022/02/16 05:02:55;;;;;;;;;;;;;;;21.68;43.92;99805.13;4886253;29;4280;-58
2022/02/16 05:05:22;;;;;;;;;;;;;;;21.67;43.77;99809.44;4868583;29;5319;-59
2022/02/16 05:07:48;;;;;;;;;;;;;;;21.67;43.92;99800.81;4880085;29;6335;-59
2022/02/16 05:10:14;;;;;;;;;;;;;;;21.68;43.91;99805.13;4873174;29;5298;-59
2022/02/16 05:12:41;;;;;;;;;;;;;;;21.68;43.92;99793.59;4866186;29;5240;-59
2022/02/16 05:15:07;;;;;;;;;;;;;;;21.66;43.76;99790.69;4884620;29;4309;-58
2022/02/16 05:17:34;;;;;;;;;;;;;;;21.67;43.69;99795.03;4886420;29;4309;-59
2022/02/16 05:20:04;;;;;;;;;;;;;;;21.66;43.79;99787.78;4862834;29;4145;-58
2022/02/16 05:22:32;;;;;;;;;;;;;;;21.67;43.67;99785.63;4885539;29;4227;-58
2022/02/16 05:24:59;;;;;;;;;;;;;;;21.69;43.90;99785.69;4887660;29;5479;-58
2022/02/16 05:27:26;;;;;;;;;;;;;;;21.68;43.83;99790.72;4885490;29;4216;-58
2022/02/16 05:29:52;;;;;;;;;;;;;;;21.69;43.64;99789.31;4884942;29;4270;-59
2022/02/16 05:32:19;;;;;;;;;;;;;;;21.69;43.68;99789.31;4871032;29;5330;-59
2022/02/16 05:34:45;;;;;;;;;;;;;;;21.70;43.93;99793.66;4877831;29;4289;-59
2022/02/16 05:37:12;;;;;;;;;;;;;;;21.69;43.72;99795.09;4866818;29;4283;-59
2022/02/16 05:39:39;;;;;;;;;;;;;;;21.67;43.74;99786.41;4883631;29;5321;-58
2022/02/16 05:42:06;;;;;;;;;;;;;;;21.67;43.68;99786.41;4879281;29;4285;-58
2022/02/16 05:44:35;;;;;;;;;;;;;;;21.67;43.96;99774.88;4877024;29;4249;-59
2022/02/16 05:47:01;;;;;;;;;;;;;;;21.67;43.81;99779.88;4869468;29;4286;-58
2022/02/16 05:49:28;;;;;;;;;;;;;;;21.66;43.70;99784.91;4880615;29;4046;-59
2022/02/16 05:51:56;;;;;;;;;;;;;;;21.66;43.65;99770.50;4881722;29;4291;-58
2022/02/16 05:54:22;;;;;;;;;;;;;;;21.66;43.66;99779.16;4866618;29;4245;-59
2022/02/16 05:56:48;;;;;;;;;;;;;;;21.66;43.69;99770.50;4878425;29;5432;-58
2022/02/16 05:59:18;;;;;;;;;;;;;;;21.67;43.82;99769.09;4880666;29;4225;-59
2022/02/16 06:01:46;;;;;;;;;;;;;;;21.67;43.75;99774.88;4882098;29;5422;-58
2022/02/16 06:04:15;;;;;;;;;;;;;;;21.69;43.67;99774.16;4857575;29;4203;-58
2022/02/16 06:06:43;;;;;;;;;;;;;;;21.72;44.03;99770.66;4881553;29;4306;-59
2022/02/16 06:09:10;;;;;;;;;;;;;;;21.80;44.84;99767.22;4872324;29;4084;-59
2022/02/16 06:11:37;;;;;;;;;;;;;;;21.99;45.53;99767.63;4872317;29;4444;-57
2022/02/16 06:14:09;;;;;;;;;;;;;;;22.06;45.34;99754.81;4876000;29;4100;-57
2022/02/16 06:16:38;;;;;;;;;;;;;;;22.08;45.13;99752.00;4879848;29;4223;-58
2022/02/16 06:19:05;;;;;;;;;;;;;;;21.95;45.06;99743.09;4874384;29;4279;-58
2022/02/16 06:21:32;;;;;;;;;;;;;;;21.90;45.59;99744.41;4869422;29;4256;-54
2022/02/16 06:23:59;;;;;;;;;;;;;;;21.92;45.15;99740.84;4877991;29;4189;-59
2022/02/16 06:26:26;;;;;;;;;;;;;;;21.90;45.08;99738.66;4878758;29;4240;-57
2022/02/16 06:28:55;;;;;;;;;;;;;;;21.87;44.99;99739.28;4867503;29;4251;-56
2022/02/16 06:31:36;;;;;;;;;;;;;;;21.85;44.85;99736.34;4876949;29;4377;-56
2022/02/16 06:34:02;;;;;;;;;;;;;;;21.83;44.87;99739.94;4878877;29;4214;-56
2022/02/16 06:36:29;;;;;;;;;;;;;;;21.83;46.01;99742.06;4860477;29;5627;-56
2022/02/16 06:38:55;;;;;;;;;;;;;;;21.74;45.15;99733.25;4863861;29;4646;-57
2022/02/16 06:41:22;;;;;;;;;;;;;;;21.87;46.49;99727.75;4883322;29;4302;-57
2022/02/16 06:43:50;;;;;;;;;;;;;;;21.99;46.84;99722.28;4867724;29;4256;-61
2022/02/16 06:46:17;;;;;;;;;;;;;;;22.00;46.09;99717.22;4870135;29;5560;-55
2022/02/16 06:48:43;;;;;;;;;;;;;;;22.05;46.61;99713.75;4867974;29;4264;-57
2022/02/16 06:51:14;;;;;;;;;;;;;;;22.05;46.11;99707.97;4863535;29;5645;-58
2022/02/16 06:53:41;;;;;;;;;;;;;;;22.07;46.37;99699.38;4885836;29;4402;-56
2022/02/16 06:56:08;;;;;;;;;;;;;;;22.10;46.20;99703.03;4886215;29;5382;-56
2022/02/16 06:58:57;;;;;;;;;;;;;;;22.12;45.89;99695.16;4872408;29;4081;-55
2022/02/16 07:01:23;;;;;;;;;;;;;;;22.13;45.89;99690.84;4883626;29;5138;-56
2022/02/16 07:03:50;;;;;;;;;;;;;;;22.05;45.93;99676.25;4873962;29;4267;-55
2022/02/16 07:06:21;;;;;;;;;;;;;;;22.16;45.83;99675.06;4883002;29;4322;-57
2022/02/16 07:08:47;;;;;;;;;;;;;;;22.21;46.04;99663.59;4880573;29;4128;-53
2022/02/16 07:11:14;;;;;;;;;;;;;;;22.16;46.24;99660.63;4871429;29;4256;-59
2022/02/16 07:13:40;;;;;;;;;;;;;;;22.27;44.65;99646.47;4886969;29;4148;-58
2022/02/16 07:16:06;;;;;;;;;;;;;;;22.17;44.39;99638.31;4874731;29;5749;-58
2022/02/16 07:18:35;;;;;;;;;;;;;;;22.25;43.99;99649.31;4883332;29;4928;-60
2022/02/16 07:21:11;;;;;;;;;;;;;;;22.26;44.17;99642.09;4864265;29;4258;-57
2022/02/16 07:23:38;;;;;;;;;;;;;;;22.30;43.79;99640.03;4879506;29;5608;-55
2022/02/16 07:26:05;;;;;;;;;;;;;;;22.29;43.27;99637.84;4875283;29;4290;-54
2022/02/16 07:28:33;;;;;;;;;;;;;;;22.32;42.78;99642.22;4877728;29;5390;-57
2022/02/16 07:30:59;;;;;;;;;;;;;;;22.28;42.78;99642.16;4885335;29;5510;-59
2022/02/16 07:33:27;;;;;;;;;;;;;;;22.26;42.42;99633.44;4883657;29;4210;-58
2022/02/16 07:35:53;;;;;;;;;;;;;;;22.23;42.36;99624.03;4883361;29;4388;-58
2022/02/16 07:38:20;;;;;;;;;;;;;;;22.30;42.33;99627.78;4881884;29;4233;-58
2022/02/16 07:40:47;;;;;;;;;;;;;;;22.27;42.14;99621.22;4886551;29;4249;-58
2022/02/16 07:43:17;;;;;;;;;;;;;;;22.26;41.29;99627.69;4886446;29;4259;-60
2022/02/16 07:46:04;;;;;;;;;;;;;;;22.24;41.59;99627.66;4874378;29;4240;-60
2022/02/16 07:48:33;;;;;;;;;;;;;;;22.30;41.16;99624.88;4883874;29;4224;-58
2022/02/16 07:51:08;;;;;;;;;;;;;;;22.30;40.86;99628.50;4886142;29;4309;-59
2022/02/16 07:53:54;;;;;;;;;;;;;;;22.21;41.40;99624.00;4870621;29;4320;-59
2022/02/16 07:56:21;;;;;;;;;;;;;;;22.26;40.98;99630.56;4884275;29;4241;-58
2022/02/16 07:58:47;;;;;;;;;;;;;;;22.25;40.62;99624.06;4869454;29;4221;-59
2022/02/16 08:01:13;;;;;;;;;;;;;;;22.26;41.22;99604.63;4870683;29;4234;-59
2022/02/16 08:03:40;;;;;;;;;;;;;;;22.30;40.41;99604.69;4884314;29;4172;-59
2022/02/16 08:06:06;;;;;;;;;;;;;;;22.25;40.40;99591.63;4884216;29;4319;-59
2022/02/16 08:08:34;;;;;;;;;;;;;;;22.20;40.30;99581.44;4867629;29;4254;-59
2022/02/16 08:11:01;;;;;;;;;;;;;;;22.26;40.10;99558.47;4864321;29;4712;-57
2022/02/16 08:13:30;;;;;;;;;;;;;;;22.27;39.92;99565.72;4886123;29;4173;-59
2022/02/16 08:16:07;;;;;;;;;;;;;;;22.22;40.11;99558.41;4886352;29;4179;-60
2022/02/16 08:18:34;;;;;;;;;;;;;;;22.23;40.01;99554.09;4883060;29;4001;-58
2022/02/16 08:21:01;;;;;;;;;;;;;;;22.29;39.83;99529.00;4885722;29;4045;-58
2022/02/16 08:23:37;;;;;;;;;;;;;;;22.37;39.16;99519.75;4869631;29;4202;-58
2022/02/16 08:26:04;;;;;;;;;;;;;;;22.38;39.16;99524.81;4866529;29;4192;-59
2022/02/16 08:28:32;;;;;;;;;;;;;;;22.39;39.16;99525.56;4871806;29;5335;-59
2022/02/16 08:30:59;;;;;;;;;;;;;;;22.11;38.40;99523.63;4877086;29;4266;-63
2022/02/16 08:33:45;;;;;;;;;;;;;;;21.36;38.17;99511.34;4856186;29;4259;-54
2022/02/16 08:36:14;;;;;;;;;;;;;;;21.51;38.41;99509.50;4880555;29;5574;-58
2022/02/16 08:38:40;;;;;;;;;;;;;;;21.49;38.68;99513.06;4869699;29;4266;-59
2022/02/16 08:41:07;;;;;;;;;;;;;;;21.54;39.06;99496.59;4870009;29;5502;-59
2022/02/16 08:43:36;;;;;;;;;;;;;;;21.55;39.24;99480.78;4867697;29;4278;-58
2022/02/16 08:46:02;;;;;;;;;;;;;;;21.43;39.59;99477.66;4871325;29;4170;-57
2022/02/16 08:48:28;;;;;;;;;;;;;;;21.61;39.90;99475.13;4867095;29;5254;-54
2022/02/16 08:50:55;;;;;;;;;;;;;;;21.53;39.16;99477.84;4871101;29;4288;-54
2022/02/16 08:53:22;;;;;;;;;;;;;;;21.49;39.11;99472.03;4871406;29;4287;-55
2022/02/16 08:55:54;;;;;;;;;;;;;;;21.50;39.60;99467.72;4870536;29;4284;-56
2022/02/16 08:58:21;;;;;;;;;;;;;;;21.48;39.22;99464.78;4866770;29;4258;-58
2022/02/16 09:00:48;;;;;;;;;;;;;;;21.49;39.64;99466.28;4873363;29;4440;-57
2022/02/16 09:03:14;;;;;;;;;;;;;;;21.51;39.69;99452.63;4872119;29;4261;-56
2022/02/16 09:05:42;;;;;;;;;;;;;;;21.43;40.13;99452.47;4873145;29;4236;-58
2022/02/16 09:08:08;;;;;;;;;;;;;;;21.41;40.27;99452.44;4872303;29;4035;-57
2022/02/16 09:10:35;;;;;;;;;;;;;;;21.45;40.76;99437.38;4869440;29;4109;-58
2022/02/16 09:13:04;;;;;;;;;;;;;;;21.42;40.58;99433.03;4873035;29;4159;-58
2022/02/16 09:15:31;;;;;;;;;;;;;;;21.41;40.36;99428.66;4872784;29;4204;-58
2022/02/16 09:17:57;;;;;;;;;;;;;;;21.39;39.75;99428.59;4871537;29;4655;-58
2022/02/16 09:20:24;;;;;;;;;;;;;;;21.34;40.51;99405.47;4868095;29;5485;-58
2022/02/16 09:22:50;;;;;;;;;;;;;;;21.41;40.30;99412.13;4871388;29;4601;-58
2022/02/16 09:25:19;;;;;;;;;;;;;;;21.46;40.18;99401.41;4871640;29;4390;-58
2022/02/16 09:27:47;;;;;;;;;;;;;;;21.44;40.06;99398.47;4869219;29;4508;-57
2022/02/16 09:30:13;;;;;;;;;;;;;;;21.42;39.90;99404.22;4867480;29;4438;-60
2022/02/16 09:32:40;;;;;;;;;;;;;;;20.99;38.88;99391.84;4870262;29;4344;-61
2022/02/16 09:35:07;;;;;;;;;;;;;;;21.07;39.19;99374.72;4866148;29;4275;-55
2022/02/16 09:37:33;;;;;;;;;;;;;;;21.33;38.96;99383.88;4868717;29;4287;-54
2022/02/16 09:40:00;;;;;;;;;;;;;;;21.38;39.84;99370.28;4866541;29;5540;-57
2022/02/16 09:42:27;;;;;;;;;;;;;;;21.33;41.23;99363.72;4871642;29;4484;-60
2022/02/16 09:44:56;;;;;;;;;;;;;;;21.42;40.87;99358.16;4871853;29;4245;-65
2022/02/16 09:47:22;;;;;;;;;;;;;;;21.31;40.83;99357.94;4870595;29;4328;-62
2022/02/16 09:49:49;;;;;;;;;;;;;;;20.99;39.93;99334.28;4867201;29;4267;-66
2022/02/16 09:52:15;;;;;;;;;;;;;;;21.26;40.47;99347.03;4873677;29;5484;-68
2022/02/16 09:54:42;;;;;;;;;;;;;;;21.33;41.14;99340.69;4869369;29;5229;-65
2022/02/16 09:57:08;;;;;;;;;;;;;;;21.38;41.00;99340.78;4868617;29;5510;-65
2022/02/16 09:59:35;;;;;;;;;;;;;;;21.34;41.33;99339.25;4868643;29;4339;-62
2022/02/16 10:02:02;;;;;;;;;;;;;;;21.43;41.24;99330.81;4872582;29;4242;-63
2022/02/16 10:04:29;;;;;;;;;;;;;;;21.39;41.46;99336.47;4871656;29;4299;-62
2022/02/16 10:06:56;;;;;;;;;;;;;;;21.40;41.22;99323.53;4873796;29;4461;-61
2022/02/16 10:09:26;;;;;;;;;;;;;;;21.07;41.24;99328.69;4868625;29;4292;-61
2022/02/16 10:11:54;;;;;;;;;;;;;;;20.42;43.05;99319.44;4872652;29;4322;-70
2022/02/16 10:14:24;;;;;;;;;;;;;;;19.90;46.04;99314.69;4873526;29;4286;-63
2022/02/16 10:16:50;;;;;;;;;;;;;;;19.93;47.32;99307.59;4872463;29;4292;-64
2022/02/16 10:19:17;;;;;;;;;;;;;;;19.96;44.49;99300.47;4866033;29;5310;-64
2022/02/16 10:22:00;;;;;;;;;;;;;;;20.24;42.60;99303.25;4871904;29;4288;-65
2022/02/16 10:24:26;;;;;;;;;;;;;;;20.65;41.56;99306.28;4870853;29;4278;-62
2022/02/16 10:26:53;;;;;;;;;;;;;;;20.83;41.21;99285.78;4872956;29;4289;-63
2022/02/16 10:29:20;;;;;;;;;;;;;;;20.92;40.93;99273.75;4869848;29;5822;-62
2022/02/16 10:31:46;;;;;;;;;;;;;;;20.99;40.34;99268.84;4868768;29;4184;-62
2022/02/16 10:34:13;;;;;;;;;;;;;;;21.07;40.75;99262.47;4862824;29;5176;-64
2022/02/16 10:36:39;;;;;;;;;;;;;;;21.12;41.10;99264.03;4867691;29;4349;-63
2022/02/16 10:39:06;;;;;;;;;;;;;;;21.22;41.88;99260.59;4867418;29;4264;-65
2022/02/16 10:41:41;;;;;;;;;;;;;;;21.71;43.25;99250.63;4870338;29;5310;-67
2022/02/16 10:44:14;;;;;;;;;;;;;;;21.79;41.77;99249.31;4868180;29;4336;-69
2022/02/16 10:46:42;;;;;;;;;;;;;;;21.67;43.17;99238.31;4870866;29;5295;-65
2022/02/16 10:49:09;;;;;;;;;;;;;;;21.67;42.60;99233.28;4862718;29;4562;-66
2022/02/16 10:52:06;;;;;;;;;;;;;;;21.59;43.49;99215.88;4869959;29;5427;-61
2022/02/16 10:54:32;;;;;;;;;;;;;;;21.70;44.19;99203.09;4868121;29;4268;-61
2022/02/16 10:56:59;;;;;;;;;;;;;;;21.73;44.33;99198.06;4864736;29;4280;-60
2022/02/16 10:59:26;;;;;;;;;;;;;;;21.81;44.26;99194.59;4858322;29;4213;-61
2022/02/16 11:01:52;;;;;;;;;;;;;;;21.88;43.89;99193.25;4871590;29;4204;-61
2022/02/16 11:04:19;;;;;;;;;;;;;;;21.84;43.56;99178.78;4870264;29;4207;-61
2022/02/16 11:06:47;;;;;;;;;;;;;;;21.90;43.67;99164.47;4885009;29;4229;-59
2022/02/16 11:09:17;;;;;;;;;;;;;;;21.95;43.23;99155.16;4867582;29;4462;-60
2022/02/16 11:11:44;;;;;;;;;;;;;;;21.99;43.78;99150.88;4869642;29;4282;-59
2022/02/16 11:14:10;;;;;;;;;;;;;;;22.14;43.51;99141.69;4867145;29;4429;-62
2022/02/16 11:16:38;;;;;;;;;;;;;;;22.14;43.52;99150.34;4884108;29;4246;-60
2022/02/16 11:19:23;;;;;;;;;;;;;;;22.12;43.50;99135.91;4883871;29;5476;-59
2022/02/16 11:22:18;;;;;;;;;;;;;;;22.05;43.67;99131.50;4872873;29;4247;-58
2022/02/16 11:24:46;;;;;;;;;;;;;;;22.06;43.56;99115.69;4867048;29;4348;-62
2022/02/16 11:27:32;;;;;;;;;;;;;;;22.10;43.48;99115.69;4862509;29;5343;-60
2022/02/16 11:29:59;;;;;;;;;;;;;;;22.14;43.58;99109.25;4861229;29;4346;-62
2022/02/16 11:32:29;;;;;;;;;;;;;;;22.13;43.82;99102.06;4861507;29;4349;-59
2022/02/16 11:35:12;;;;;;;;;;;;;;;22.09;43.79;99084.72;4867031;29;4292;-56
2022/02/16 11:37:39;;;;;;;;;;;;;;;22.03;43.85;99079.59;4866499;29;5266;-57
2022/02/16 11:40:07;;;;;;;;;;;;;;;21.97;43.98;99085.31;4864829;29;4120;-62
2022/02/16 11:42:48;;;;;;;;;;;;;;;21.96;43.97;99083.84;4863505;29;4315;-63
2022/02/16 11:45:15;;;;;;;;;;;;;;;22.19;43.89;99070.41;4861828;29;4257;-65
2022/02/16 11:47:41;;;;;;;;;;;;;;;22.32;43.58;99057.59;4868247;29;4345;-66
2022/02/16 11:50:07;;;;;;;;;;;;;;;22.45;43.13;99055.56;4866348;29;4272;-64
2022/02/16 11:52:38;;;;;;;;;;;;;;;22.54;43.12;99039.78;4868778;29;4219;-63
2022/02/16 11:55:26;;;;;;;;;;;;;;;22.61;43.00;99028.28;4867604;29;4233;-63
2022/02/16 11:58:01;;;;;;;;;;;;;;;22.55;42.79;99018.13;4868681;29;4189;-61
2022/02/16 12:00:32;;;;;;;;;;;;;;;22.29;43.62;99026.56;4867400;29;5525;-67
2022/02/16 12:03:02;;;;;;;;;;;;;;;22.33;43.70;99017.94;4871049;29;4273;-61
2022/02/16 12:05:49;;;;;;;;;;;;;;;22.47;43.72;99012.31;4868440;29;4234;-59
2022/02/16 12:08:16;;;;;;;;;;;;;;;22.29;43.42;98992.69;4864087;29;4236;-60
2022/02/16 12:10:47;;;;;;;;;;;;;;;22.16;43.87;98991.81;4846799;29;4356;-60
2022/02/16 12:16:20;;;;;;;;;;;;;;;22.27;43.94;98981.16;4872867;29;4448;-63
2022/02/16 12:18:49;;;;;;;;;;;;;;;22.32;43.59;98979.75;4859160;29;5490;-62
2022/02/16 12:21:23;;;;;;;;;;;;;;;22.36;43.66;98973.28;4868358;29;4268;-62
2022/02/16 12:23:52;;;;;;;;;;;;;;;22.40;43.65;98967.53;4870685;29;4298;-62
2022/02/16 12:26:19;;;;;;;;;;;;;;;22.37;43.40;98963.91;4868785;29;4309;-60
2022/02/16 12:28:46;;;;;;;;;;;;;;;22.36;43.38;98965.38;4871568;29;4266;-59
2022/02/16 12:31:12;;;;;;;;;;;;;;;22.34;43.65;98967.50;4867022;29;4254;-65
2022/02/16 12:33:41;;;;;;;;;;;;;;;22.38;43.34;98950.97;4867940;29;4409;-65
2022/02/16 12:36:07;;;;;;;;;;;;;;;22.46;43.12;98958.94;4869003;29;4094;-67
2022/02/16 12:38:34;;;;;;;;;;;;;;;22.35;43.32;98943.00;4863465;29;5297;-63
2022/02/16 12:41:01;;;;;;;;;;;;;;;22.22;43.48;98936.44;4863086;29;4367;-65
2022/02/16 12:43:27;;;;;;;;;;;;;;;22.26;43.62;98906.88;4858195;29;5376;-61
2022/02/16 12:45:53;;;;;;;;;;;;;;;22.32;43.71;98924.25;4867456;29;4208;-61
2022/02/16 12:48:20;;;;;;;;;;;;;;;22.34;43.44;98901.91;4868194;29;4270;-61
2022/02/16 12:50:46;;;;;;;;;;;;;;;22.38;43.25;98896.19;4866864;29;4185;-61
2022/02/16 12:53:15;;;;;;;;;;;;;;;22.40;43.60;98917.81;4868146;29;4241;-61
2022/02/16 12:55:42;;;;;;;;;;;;;;;22.40;43.20;98912.03;4870297;29;5283;-61
2022/02/16 12:58:09;;;;;;;;;;;;;;;22.37;43.18;98888.22;4860584;29;4255;-61
2022/02/16 13:00:47;;;;;;;;;;;;;;;22.38;43.29;98889.69;4864904;29;5512;-60
2022/02/16 13:03:17;;;;;;;;;;;;;;;22.38;42.96;98901.22;4868218;29;4208;-61
2022/02/16 13:05:44;;;;;;;;;;;;;;;22.34;43.00;98869.47;4870379;29;4102;-61